Airfield :
LOGIN :

Register | Disclaimer

   EN    FR    IT 

 










Legend :    VFR   Marginal VFR   IFR   Intensive IFR   Very Intensive IFR
Visi :
Ceiling :
>= 8 km
>= 3000ft
5 to 8 km
1000 to 3000 ft
1500m to 5 km
500 to 1000 ft
800 to 1500m
200 to 500 ft
< 800m
< 200 ft
Symbols :   Thunderstorms  Fog  Heavy snow  Heavy precipitations  Wind > 20 kt
SIGMETs :     Misc.  Thunderstorms  Icing  Turbulence  Mountain Waves  Volcanic Ashes







- Airport Elevation : 82 ft
- IATA code : ALG


DAAG - Alger Houari Boumedienne

CURRENT METAR :
  • 211830Z 06009KT 9999 FEW026TCU SCT200 20/13 Q1015

EXPIRED METARs :
  • 211800Z 07008KT 9999 FEW026TCU SCT200 21/13 Q1015
  • 211730Z 06010KT 9999 FEW026 SCT200 22/13 Q1014
  • 211700Z 07009KT 030V100 9999 FEW026 SCT200 23/14 Q1014
  • 211630Z 07010KT 9999 FEW026 SCT200 24/14 Q1015
  • 211600Z 08010KT 9999 FEW026 SCT200 25/13 Q1015
  • 211530Z 07010KT 030V100 9999 FEW026 SCT230 25/12 Q1015

TAF TAF DAAG
Valid from the 21 at 18:00 until the 22 at 18:00 UTC


211700Z 2118/2218 04010KT 9999 FEW026 SCT100
PROB30
TEMPO 2118/2121 FEW026TCU
BECMG 2119/2122 VRB02KT
PROB30
TEMPO 2200/2206 3000 BR
BECMG 2209/2212 01010KT
No reported NOTAMs for that airfield.
2 SIGMETs reported for the Alger FIR (DAAA) :
 
Embedded thunderstorms
DAAA SIGMET 8 VALID 211900/212100 DAMM
DAAA ALGER FIR EMBD TS FCST WI N3405 E00318 - N3213 E00327 - N3041 E00051 - N3052 W00107 - N3201 W00152 - N3207 W00108 - N3342 E00130 - N3405 E00318 TOP FL380 MOV NE NC=
Dust storm
DAAA SIGMET 7 VALID 211800/212000 DAMM
DAAA ALGER FIR HYV DS OBS E OF LINE N2057 E00755 - N2623 E00459 - N2842 E00944 STNR NC=



MET'MAP, your aeronautical weather chart ! - Copyright ORBIFLY December 2007 - Disclaimer

ORBIFLY MET'MAP TEAM :

Programming & Development : Alexandra Zaïnal
Concept & Development : Baudouin d'Aumeries
Co-Development & Prog : Marc-Olivier Méhu
Technical & hardware support : Manuel Goepfert

Contact : metmap@orbifly.com




SOURCES & CREDITS :

   NOAA